Time;durP1;ratioP1;P1;durP2;ratioP2;P2;SDS_P1;SDS_P2;PMS_P1;PMS_P2;Temp;Humidity;BMP_temperature;BMP_pressure;BME280_temperature;BME280_humidity;BME280_pressure;Samples;Min_cycle;Max_cycle;Signal;HPM_P1;HPM_P2
2023/11/15 00:02:18;;;;;;;15.30;4.30;;;;;;;;;;5031073;28;20637;-70
2023/11/15 00:04:43;;;;;;;21.10;5.22;;;;;;;;;;5028451;28;20295;-70
2023/11/15 00:07:09;;;;;;;18.52;5.95;;;;;;;;;;5031147;28;20016;-70
2023/11/15 00:09:34;;;;;;;27.20;6.95;;;;;;;;;;5031090;28;20017;-70
2023/11/15 00:11:59;;;;;;;24.08;6.30;;;;;;;;;;5030962;28;20029;-70
2023/11/15 00:14:25;;;;;;;24.30;6.65;;;;;;;;;;5031454;28;20068;-70
2023/11/15 00:16:50;;;;;;;22.13;5.70;;;;;;;;;;5015607;28;20579;-70
2023/11/15 00:19:16;;;;;;;25.90;7.40;;;;;;;;;;5029327;28;20552;-70
2023/11/15 00:21:41;;;;;;;30.08;6.13;;;;;;;;;;5030281;28;20052;-70
2023/11/15 00:24:07;;;;;;;30.33;6.38;;;;;;;;;;5031375;28;20036;-70
2023/11/15 00:26:32;;;;;;;18.83;7.10;;;;;;;;;;5030946;28;20056;-70
2023/11/15 00:28:57;;;;;;;25.67;5.60;;;;;;;;;;5031005;28;20025;-70
2023/11/15 00:31:23;;;;;;;26.57;6.27;;;;;;;;;;5030000;28;20104;-70
2023/11/15 00:33:48;;;;;;;32.63;7.15;;;;;;;;;;5027013;28;20367;-70
2023/11/15 00:36:14;;;;;;;20.25;5.45;;;;;;;;;;5030548;28;20116;-70
2023/11/15 00:38:39;;;;;;;28.93;6.67;;;;;;;;;;5029731;28;20640;-70
2023/11/15 00:41:06;;;;;;;21.43;6.17;;;;;;;;;;5029396;28;20268;-70
2023/11/15 00:43:31;;;;;;;29.80;7.40;;;;;;;;;;5029710;28;20252;-70
2023/11/15 00:45:57;;;;;;;19.27;5.68;;;;;;;;;;5028410;28;20099;-70
2023/11/15 00:48:22;;;;;;;29.23;6.27;;;;;;;;;;5025563;28;20026;-70
2023/11/15 00:50:48;;;;;;;23.88;5.35;;;;;;;;;;5029549;28;20280;-70
2023/11/15 00:53:13;;;;;;;21.27;5.43;;;;;;;;;;5029771;28;20097;-70
2023/11/15 00:55:39;;;;;;;26.23;6.60;;;;;;;;;;5029084;28;20117;-70
2023/11/15 00:58:08;;;;;;;27.73;6.25;;;;;;;;;;5029630;28;20009;-70
2023/11/15 01:00:39;;;;;;;19.25;5.45;;;;;;;;;;5027005;28;20048;-70
2023/11/15 01:03:05;;;;;;;16.60;4.43;;;;;;;;;;5027900;28;20629;-70
2023/11/15 01:05:30;;;;;;;24.77;4.40;;;;;;;;;;5028957;28;20028;-69
2023/11/15 01:07:55;;;;;;;20.02;4.70;;;;;;;;;;5028671;28;20049;-67
2023/11/15 01:10:21;;;;;;;26.42;5.55;;;;;;;;;;5028753;28;20029;-67
2023/11/15 01:12:46;;;;;;;19.45;4.53;;;;;;;;;;5028286;28;20036;-67
2023/11/15 01:15:11;;;;;;;21.48;4.22;;;;;;;;;;5028897;28;20049;-67
2023/11/15 01:17:37;;;;;;;22.52;6.00;;;;;;;;;;5027377;28;20028;-67
2023/11/15 01:20:03;;;;;;;17.80;5.00;;;;;;;;;;5027987;28;20461;-70
2023/11/15 01:22:28;;;;;;;14.25;4.38;;;;;;;;;;5027322;28;20029;-70
2023/11/15 01:24:54;;;;;;;23.85;5.70;;;;;;;;;;5028893;28;20028;-70
2023/11/15 01:27:19;;;;;;;24.13;4.78;;;;;;;;;;5029092;28;20024;-69
2023/11/15 01:29:44;;;;;;;18.75;3.58;;;;;;;;;;5027940;28;20115;-70
2023/11/15 01:32:09;;;;;;;13.53;3.57;;;;;;;;;;5027136;28;20108;-69
2023/11/15 01:34:35;;;;;;;20.92;5.25;;;;;;;;;;5026610;28;20749;-70
2023/11/15 01:37:00;;;;;;;20.73;5.20;;;;;;;;;;5026771;28;20078;-70
2023/11/15 01:39:25;;;;;;;25.40;5.80;;;;;;;;;;5028820;28;20264;-70
2023/11/15 01:41:51;;;;;;;26.65;6.85;;;;;;;;;;5028527;28;20021;-70
2023/11/15 01:44:17;;;;;;;21.58;4.75;;;;;;;;;;5028373;28;20052;-70
2023/11/15 01:46:44;;;;;;;22.08;5.43;;;;;;;;;;5027604;28;20029;-70
2023/11/15 01:49:09;;;;;;;20.88;4.90;;;;;;;;;;5028412;28;20030;-70
2023/11/15 01:51:35;;;;;;;28.63;5.25;;;;;;;;;;5028077;28;20326;-70
2023/11/15 01:54:00;;;;;;;20.90;6.07;;;;;;;;;;5028073;28;20470;-70
2023/11/15 01:56:26;;;;;;;30.00;7.53;;;;;;;;;;5027785;28;20033;-70
2023/11/15 01:58:51;;;;;;;28.30;7.00;;;;;;;;;;5026018;28;20049;-70
2023/11/15 02:01:17;;;;;;;19.60;4.68;;;;;;;;;;5026323;28;20021;-70
2023/11/15 02:03:45;;;;;;;26.10;6.20;;;;;;;;;;5027769;28;20053;-70
2023/11/15 02:06:10;;;;;;;15.65;5.15;;;;;;;;;;5021062;28;20030;-70
2023/11/15 02:08:36;;;;;;;19.77;5.13;;;;;;;;;;5028250;28;20502;-70
2023/11/15 02:11:01;;;;;;;23.02;5.90;;;;;;;;;;5027935;28;20026;-70
2023/11/15 02:13:26;;;;;;;18.42;5.18;;;;;;;;;;5026479;28;20128;-70
2023/11/15 02:15:52;;;;;;;24.88;5.22;;;;;;;;;;5025808;28;20071;-70
2023/11/15 02:18:18;;;;;;;19.60;5.53;;;;;;;;;;5029635;28;20109;-69
2023/11/15 02:20:43;;;;;;;27.73;5.63;;;;;;;;;;5025765;28;20022;-70
2023/11/15 02:23:08;;;;;;;26.27;5.07;;;;;;;;;;5028053;28;20025;-70
2023/11/15 02:25:33;;;;;;;21.27;4.78;;;;;;;;;;5028286;28;20029;-69
2023/11/15 02:28:00;;;;;;;23.70;6.13;;;;;;;;;;5027457;28;20693;-69
2023/11/15 02:30:25;;;;;;;17.38;6.03;;;;;;;;;;5027859;28;20389;-70
2023/11/15 02:32:50;;;;;;;17.50;4.68;;;;;;;;;;5028103;28;20083;-70
2023/11/15 02:35:15;;;;;;;27.77;4.87;;;;;;;;;;5027724;28;20021;-70
2023/11/15 02:37:41;;;;;;;22.38;6.30;;;;;;;;;;5026541;28;20764;-70
2023/11/15 02:40:09;;;;;;;19.85;4.95;;;;;;;;;;5027398;28;20485;-70
2023/11/15 02:42:34;;;;;;;21.08;5.00;;;;;;;;;;5028307;28;20026;-70
2023/11/15 02:44:59;;;;;;;23.52;5.18;;;;;;;;;;5028391;28;20473;-70
2023/11/15 02:47:25;;;;;;;25.88;5.70;;;;;;;;;;5027304;28;20513;-70
2023/11/15 02:49:51;;;;;;;18.67;4.93;;;;;;;;;;5027149;28;20017;-70
2023/11/15 02:52:16;;;;;;;24.95;5.10;;;;;;;;;;5027508;28;20600;-70
2023/11/15 02:54:41;;;;;;;27.42;4.97;;;;;;;;;;5030541;28;20089;-70
2023/11/15 02:57:07;;;;;;;15.70;4.60;;;;;;;;;;5027589;28;20028;-70
2023/11/15 02:59:32;;;;;;;12.63;4.80;;;;;;;;;;5031921;28;20767;-70
2023/11/15 03:01:57;;;;;;;20.00;5.50;;;;;;;;;;5031589;28;20021;-70
2023/11/15 03:04:22;;;;;;;19.97;5.00;;;;;;;;;;5031899;28;20501;-70
2023/11/15 03:06:47;;;;;;;22.08;5.28;;;;;;;;;;5031108;28;20252;-70
2023/11/15 03:09:13;;;;;;;24.83;4.80;;;;;;;;;;5031289;28;20075;-70
2023/11/15 03:11:38;;;;;;;33.70;4.90;;;;;;;;;;5031211;28;20760;-70
2023/11/15 03:14:04;;;;;;;25.13;3.78;;;;;;;;;;5031469;28;20529;-70
2023/11/15 03:16:29;;;;;;;12.40;4.88;;;;;;;;;;5031641;28;20374;-70
2023/11/15 03:18:54;;;;;;;23.58;6.32;;;;;;;;;;5031407;28;20025;-70
2023/11/15 03:21:20;;;;;;;16.65;4.30;;;;;;;;;;5030518;28;20032;-69
2023/11/15 03:23:45;;;;;;;15.93;4.60;;;;;;;;;;5030179;28;20029;-70
2023/11/15 03:26:10;;;;;;;25.52;4.65;;;;;;;;;;5030485;28;20299;-70
2023/11/15 03:28:35;;;;;;;23.50;4.47;;;;;;;;;;5029912;28;20029;-69
2023/11/15 03:31:01;;;;;;;23.70;6.68;;;;;;;;;;5030444;28;20359;-70
2023/11/15 03:33:26;;;;;;;20.60;5.43;;;;;;;;;;5029347;28;20044;-70
2023/11/15 03:35:52;;;;;;;15.80;4.22;;;;;;;;;;5031251;28;20017;-70
2023/11/15 03:38:17;;;;;;;22.45;4.60;;;;;;;;;;5031671;28;20017;-69
2023/11/15 03:40:42;;;;;;;18.47;4.23;;;;;;;;;;5030937;28;20017;-70
2023/11/15 03:43:08;;;;;;;18.42;3.63;;;;;;;;;;5031403;28;20621;-70
2023/11/15 03:45:33;;;;;;;31.15;4.78;;;;;;;;;;5031560;28;20033;-70
2023/11/15 03:48:02;;;;;;;35.40;5.68;;;;;;;;;;5031097;28;20820;-70
2023/11/15 03:50:27;;;;;;;27.02;5.22;;;;;;;;;;5031040;28;20018;-69
2023/11/15 03:52:54;;;;;;;22.02;5.38;;;;;;;;;;5030991;28;20359;-70
2023/11/15 03:55:19;;;;;;;13.05;3.50;;;;;;;;;;5029222;28;20033;-69
2023/11/15 03:57:46;;;;;;;26.65;5.80;;;;;;;;;;5028671;28;20021;-70
2023/11/15 04:00:11;;;;;;;27.05;4.93;;;;;;;;;;5022425;28;20017;-70
2023/11/15 04:02:37;;;;;;;30.38;6.43;;;;;;;;;;5029996;28;20116;-69
2023/11/15 04:05:03;;;;;;;25.15;4.95;;;;;;;;;;5028331;28;20072;-70
2023/11/15 04:07:29;;;;;;;19.98;4.20;;;;;;;;;;5031334;28;20051;-69
2023/11/15 04:09:54;;;;;;;23.08;3.90;;;;;;;;;;5029501;28;20025;-70
2023/11/15 04:12:20;;;;;;;30.92;5.20;;;;;;;;;;5030391;28;20028;-69
2023/11/15 04:14:45;;;;;;;30.80;4.97;;;;;;;;;;5030792;28;20041;-70
2023/11/15 04:17:10;;;;;;;17.97;3.73;;;;;;;;;;5027903;28;20032;-70
2023/11/15 04:19:36;;;;;;;23.10;4.25;;;;;;;;;;5028608;28;20260;-70
2023/11/15 04:22:01;;;;;;;20.77;4.20;;;;;;;;;;5030078;28;20033;-70
2023/11/15 04:24:27;;;;;;;26.70;5.03;;;;;;;;;;5030773;28;20116;-69
2023/11/15 04:26:52;;;;;;;22.20;5.10;;;;;;;;;;5029901;28;20021;-70
2023/11/15 04:29:18;;;;;;;30.25;4.03;;;;;;;;;;5030958;28;20029;-70
2023/11/15 04:31:44;;;;;;;33.08;3.95;;;;;;;;;;5028828;28;20027;-70
2023/11/15 04:34:09;;;;;;;31.02;4.28;;;;;;;;;;5028265;28;20088;-70
2023/11/15 04:36:35;;;;;;;21.75;4.18;;;;;;;;;;5030698;28;20021;-70
2023/11/15 04:39:06;;;;;;;19.10;4.53;;;;;;;;;;5030205;28;20018;-70
2023/11/15 04:41:31;;;;;;;23.15;4.75;;;;;;;;;;5038449;28;20031;-69
2023/11/15 04:43:57;;;;;;;25.55;4.38;;;;;;;;;;5028671;28;20021;-70
2023/11/15 04:46:22;;;;;;;37.63;6.33;;;;;;;;;;5029747;28;20029;-69
2023/11/15 04:48:47;;;;;;;20.45;5.22;;;;;;;;;;5026060;28;20391;-70
2023/11/15 04:51:12;;;;;;;34.03;5.17;;;;;;;;;;5027599;28;20445;-70
2023/11/15 04:53:37;;;;;;;25.60;4.77;;;;;;;;;;5030715;28;20272;-70
2023/11/15 04:56:03;;;;;;;24.15;4.15;;;;;;;;;;5035164;28;20363;-70
2023/11/15 04:58:28;;;;;;;30.77;4.43;;;;;;;;;;5028895;28;20033;-69
2023/11/15 05:00:53;;;;;;;27.92;5.47;;;;;;;;;;5029810;28;20017;-69
2023/11/15 05:03:19;;;;;;;20.97;4.83;;;;;;;;;;5030386;28;20119;-70
2023/11/15 05:05:45;;;;;;;19.80;4.75;;;;;;;;;;5029082;28;20409;-70
2023/11/15 05:08:10;;;;;;;25.52;4.60;;;;;;;;;;5029791;28;20116;-70
2023/11/15 05:10:36;;;;;;;28.40;5.40;;;;;;;;;;5035065;28;20166;-70
2023/11/15 05:13:01;;;;;;;24.05;4.43;;;;;;;;;;5034740;28;20025;-70
2023/11/15 05:15:27;;;;;;;35.45;5.00;;;;;;;;;;5028922;28;20140;-70
2023/11/15 05:17:52;;;;;;;17.48;4.72;;;;;;;;;;5029241;28;20112;-70
2023/11/15 05:20:17;;;;;;;25.85;4.97;;;;;;;;;;5029074;28;20028;-69
2023/11/15 05:22:42;;;;;;;40.40;5.22;;;;;;;;;;5029154;28;20042;-69
2023/11/15 05:25:08;;;;;;;36.13;5.20;;;;;;;;;;5026993;28;20027;-70
2023/11/15 05:27:33;;;;;;;30.38;7.38;;;;;;;;;;5028610;28;20740;-70
2023/11/15 05:29:58;;;;;;;31.33;5.78;;;;;;;;;;5012003;28;20029;-70
2023/11/15 05:32:23;;;;;;;20.90;3.95;;;;;;;;;;5029218;28;20040;-70
2023/11/15 05:34:49;;;;;;;20.35;3.90;;;;;;;;;;5029377;28;20116;-69
2023/11/15 05:37:14;;;;;;;27.63;4.38;;;;;;;;;;5029300;28;20088;-70
2023/11/15 05:39:41;;;;;;;21.53;6.10;;;;;;;;;;5027838;28;20128;-69
2023/11/15 05:42:07;;;;;;;28.00;6.50;;;;;;;;;;5034089;28;20268;-69
2023/11/15 05:44:32;;;;;;;19.95;3.80;;;;;;;;;;5028184;28;20028;-70
2023/11/15 05:46:57;;;;;;;35.37;5.40;;;;;;;;;;5028959;28;20390;-70
2023/11/15 05:49:23;;;;;;;24.73;5.10;;;;;;;;;;5028506;28;20280;-70
2023/11/15 05:51:48;;;;;;;15.90;4.05;;;;;;;;;;5029164;28;20018;-70
2023/11/15 05:54:14;;;;;;;17.83;3.75;;;;;;;;;;5034728;28;20013;-70
2023/11/15 05:56:43;;;;;;;27.23;4.22;;;;;;;;;;5028195;28;20026;-70
2023/11/15 05:59:08;;;;;;;30.42;4.32;;;;;;;;;;5028662;28;20024;-70
2023/11/15 06:01:36;;;;;;;15.60;4.20;;;;;;;;;;5029081;28;20030;-70
2023/11/15 06:04:01;;;;;;;27.98;4.43;;;;;;;;;;5028530;28;20268;-70
2023/11/15 06:06:27;;;;;;;18.43;3.83;;;;;;;;;;5028098;28;20497;-70
2023/11/15 06:08:52;;;;;;;30.13;3.92;;;;;;;;;;5027125;28;20772;-70
2023/11/15 06:11:18;;;;;;;29.10;4.20;;;;;;;;;;5029039;28;20024;-69
2023/11/15 06:13:43;;;;;;;20.87;3.50;;;;;;;;;;5029312;28;20275;-70
2023/11/15 06:16:08;;;;;;;23.98;4.13;;;;;;;;;;5028769;28;20307;-70
2023/11/15 06:18:35;;;;;;;30.73;4.68;;;;;;;;;;5029021;28;20112;-70
2023/11/15 06:21:00;;;;;;;31.95;4.88;;;;;;;;;;5028107;28;20393;-70
2023/11/15 06:23:25;;;;;;;30.47;5.43;;;;;;;;;;5027859;28;20025;-70
2023/11/15 06:25:51;;;;;;;26.45;3.40;;;;;;;;;;5027034;28;20268;-70
2023/11/15 06:28:19;;;;;;;12.35;2.38;;;;;;;;;;5028702;28;20036;-70
2023/11/15 06:30:48;;;;;;;25.40;3.42;;;;;;;;;;5027900;28;20076;-70
2023/11/15 06:33:14;;;;;;;25.38;4.18;;;;;;;;;;5023380;28;20460;-70
2023/11/15 06:35:39;;;;;;;18.58;4.05;;;;;;;;;;5032732;28;20029;-70
2023/11/15 06:38:05;;;;;;;28.53;6.50;;;;;;;;;;5030254;28;20018;-70
2023/11/15 06:40:30;;;;;;;14.52;4.30;;;;;;;;;;5028747;28;20275;-70
2023/11/15 06:42:56;;;;;;;22.20;5.30;;;;;;;;;;5039796;28;20020;-69
2023/11/15 06:45:22;;;;;;;27.38;5.07;;;;;;;;;;5043243;28;20032;-69
2023/11/15 06:47:49;;;;;;;26.85;6.13;;;;;;;;;;5029699;28;20021;-70
2023/11/15 06:50:15;;;;;;;19.42;5.10;;;;;;;;;;5030140;28;20109;-69
2023/11/15 06:52:40;;;;;;;18.80;4.55;;;;;;;;;;5029551;28;20108;-69
2023/11/15 06:55:10;;;;;;;24.52;5.45;;;;;;;;;;5027686;28;20105;-69
2023/11/15 06:57:37;;;;;;;23.05;4.43;;;;;;;;;;5037312;28;20016;-69
2023/11/15 07:00:04;;;;;;;35.35;5.18;;;;;;;;;;5030444;28;20029;-69
2023/11/15 07:02:30;;;;;;;12.95;3.17;;;;;;;;;;5032028;28;20026;-70
2023/11/15 07:04:55;;;;;;;21.15;4.00;;;;;;;;;;5032020;28;20160;-70
2023/11/15 07:07:21;;;;;;;17.00;3.13;;;;;;;;;;5031829;28;20017;-71
2023/11/15 07:09:46;;;;;;;18.40;5.38;;;;;;;;;;5031648;28;20025;-70
2023/11/15 07:12:11;;;;;;;21.67;3.88;;;;;;;;;;5034226;28;20024;-71
2023/11/15 07:14:36;;;;;;;20.80;3.75;;;;;;;;;;5034887;28;20036;-70
2023/11/15 07:17:01;;;;;;;24.57;4.20;;;;;;;;;;5031417;28;20148;-68
2023/11/15 07:19:32;;;;;;;18.90;3.30;;;;;;;;;;5032312;28;20620;-68
2023/11/15 07:21:57;;;;;;;15.75;3.83;;;;;;;;;;5031637;28;20010;-68
2023/11/15 07:24:23;;;;;;;20.53;5.10;;;;;;;;;;5033608;28;20022;-68
2023/11/15 07:26:48;;;;;;;18.75;4.10;;;;;;;;;;5035786;28;20286;-68
2023/11/15 07:29:19;;;;;;;25.13;5.57;;;;;;;;;;5030558;28;20539;-68
2023/11/15 07:31:47;;;;;;;28.95;5.57;;;;;;;;;;5031844;28;20021;-68
2023/11/15 07:34:13;;;;;;;22.77;4.82;;;;;;;;;;5024236;28;20017;-68
2023/11/15 07:36:38;;;;;;;21.97;5.73;;;;;;;;;;5031638;28;20022;-68
2023/11/15 07:39:06;;;;;;;33.30;4.47;;;;;;;;;;5030286;28;20641;-67
2023/11/15 07:41:32;;;;;;;32.10;5.30;;;;;;;;;;5031160;28;20326;-70
2023/11/15 07:43:58;;;;;;;21.75;4.32;;;;;;;;;;5029651;28;20259;-70
2023/11/15 07:46:24;;;;;;;25.00;4.68;;;;;;;;;;5028188;28;20033;-70
2023/11/15 07:48:49;;;;;;;26.85;4.30;;;;;;;;;;5030354;28;20057;-70
2023/11/15 07:51:18;;;;;;;14.45;3.38;;;;;;;;;;5030531;28;20075;-70
2023/11/15 07:53:43;;;;;;;22.25;4.93;;;;;;;;;;5030190;28;20105;-70
2023/11/15 07:56:08;;;;;;;22.45;3.63;;;;;;;;;;5034225;28;20092;-70
2023/11/15 07:58:33;;;;;;;26.85;5.57;;;;;;;;;;5030653;28;20028;-70
2023/11/15 08:00:59;;;;;;;23.95;4.47;;;;;;;;;;5036021;28;20466;-70
2023/11/15 08:03:28;;;;;;;25.83;3.47;;;;;;;;;;5030176;28;20553;-70
2023/11/15 08:05:55;;;;;;;23.52;4.32;;;;;;;;;;5029328;28;20025;-70
2023/11/15 08:08:20;;;;;;;19.60;3.75;;;;;;;;;;5029622;28;20025;-70
2023/11/15 08:10:48;;;;;;;19.25;3.97;;;;;;;;;;5028768;28;20518;-70
2023/11/15 08:13:13;;;;;;;16.90;4.70;;;;;;;;;;5031875;28;20155;-70
2023/11/15 08:15:39;;;;;;;24.35;3.80;;;;;;;;;;5030160;28;20024;-70
2023/11/15 08:18:04;;;;;;;24.23;3.47;;;;;;;;;;5030042;28;20401;-70
2023/11/15 08:20:29;;;;;;;30.53;4.07;;;;;;;;;;5031253;28;20378;-70
2023/11/15 08:22:55;;;;;;;21.75;3.95;;;;;;;;;;5031260;28;20279;-70
2023/11/15 08:25:21;;;;;;;18.30;4.40;;;;;;;;;;5030886;28;20348;-70
2023/11/15 08:27:46;;;;;;;14.20;3.10;;;;;;;;;;5029387;28;20017;-70
2023/11/15 08:30:16;;;;;;;26.90;3.33;;;;;;;;;;5037104;28;20132;-70
2023/11/15 08:32:42;;;;;;;12.18;3.15;;;;;;;;;;5030769;28;20284;-70
2023/11/15 08:35:07;;;;;;;21.55;3.58;;;;;;;;;;5030461;28;20074;-70
2023/11/15 08:37:32;;;;;;;26.83;3.45;;;;;;;;;;5031010;28;20360;-70
2023/11/15 08:39:58;;;;;;;16.53;3.00;;;;;;;;;;5031081;28;20025;-70
2023/11/15 08:42:24;;;;;;;19.25;3.72;;;;;;;;;;5030759;28;20397;-70
2023/11/15 08:44:50;;;;;;;25.65;3.55;;;;;;;;;;5029672;28;20021;-70
2023/11/15 08:47:15;;;;;;;21.17;3.60;;;;;;;;;;5029708;28;20400;-70
2023/11/15 08:49:44;;;;;;;22.30;4.07;;;;;;;;;;5030462;28;20481;-70
2023/11/15 08:52:09;;;;;;;20.45;3.92;;;;;;;;;;5029555;28;20683;-70
2023/11/15 08:54:34;;;;;;;23.35;3.38;;;;;;;;;;5030800;28;20075;-70
2023/11/15 08:56:59;;;;;;;16.63;2.95;;;;;;;;;;5034139;28;20021;-70
2023/11/15 08:59:28;;;;;;;24.83;3.30;;;;;;;;;;5029556;28;20079;-70
2023/11/15 09:01:54;;;;;;;18.42;2.90;;;;;;;;;;5029954;28;20741;-70
2023/11/15 09:04:20;;;;;;;14.60;3.05;;;;;;;;;;5030416;28;20009;-70
2023/11/15 09:06:46;;;;;;;15.38;2.38;;;;;;;;;;5036138;28;20694;-68
2023/11/15 09:09:14;;;;;;;16.20;3.20;;;;;;;;;;5041766;28;20390;-70
2023/11/15 09:11:40;;;;;;;22.38;3.50;;;;;;;;;;5026604;28;20014;-68
2023/11/15 09:14:08;;;;;;;28.95;4.00;;;;;;;;;;5029123;28;20017;-68
2023/11/15 09:16:33;;;;;;;20.55;2.90;;;;;;;;;;5029956;28;20033;-68
2023/11/15 09:18:59;;;;;;;19.85;4.05;;;;;;;;;;5027989;28;20128;-68
2023/11/15 09:21:25;;;;;;;23.73;3.13;;;;;;;;;;5029035;28;20074;-68
2023/11/15 09:23:51;;;;;;;21.75;3.70;;;;;;;;;;5017616;28;20470;-68
2023/11/15 09:26:19;;;;;;;16.77;2.78;;;;;;;;;;5028404;28;20028;-68
2023/11/15 09:28:44;;;;;;;17.27;2.95;;;;;;;;;;5029535;28;20104;-68
2023/11/15 09:31:12;;;;;;;11.43;2.70;;;;;;;;;;5029704;28;20160;-67
2023/11/15 09:33:37;;;;;;;24.17;5.65;;;;;;;;;;5029816;28;20017;-68
2023/11/15 09:36:06;;;;;;;22.80;5.50;;;;;;;;;;5029356;28;20044;-68
2023/11/15 09:38:32;;;;;;;14.93;3.28;;;;;;;;;;5025120;28;20028;-68
2023/11/15 09:41:00;;;;;;;21.38;3.30;;;;;;;;;;5029588;28;20013;-68
2023/11/15 09:43:25;;;;;;;15.93;3.83;;;;;;;;;;5029526;28;20028;-68
2023/11/15 09:45:51;;;;;;;17.88;3.25;;;;;;;;;;5028358;28;20029;-67
2023/11/15 09:48:17;;;;;;;12.02;2.90;;;;;;;;;;5023718;28;20032;-67
2023/11/15 09:50:48;;;;;;;17.35;2.47;;;;;;;;;;5029053;28;20047;-67
2023/11/15 09:53:16;;;;;;;18.13;3.55;;;;;;;;;;5019872;28;20029;-68
2023/11/15 09:55:42;;;;;;;22.13;2.72;;;;;;;;;;5027303;28;20033;-67
2023/11/15 09:58:07;;;;;;;25.60;3.25;;;;;;;;;;5029415;28;20022;-68
2023/11/15 10:00:32;;;;;;;15.90;3.55;;;;;;;;;;5028881;28;20104;-68
2023/11/15 10:02:59;;;;;;;14.02;2.25;;;;;;;;;;5029210;28;20021;-68
2023/11/15 10:05:26;;;;;;;18.15;2.85;;;;;;;;;;5029467;28;20021;-68
2023/11/15 10:08:06;;;;;;;13.73;2.60;;;;;;;;;;5025471;28;20101;-67
2023/11/15 10:10:31;;;;;;;19.88;2.90;;;;;;;;;;5028357;28;20032;-67
2023/11/15 10:12:57;;;;;;;14.68;2.42;;;;;;;;;;5025280;28;20021;-67
2023/11/15 10:15:39;;;;;;;11.77;2.90;;;;;;;;;;5029468;28;20057;-67
2023/11/15 10:18:04;;;;;;;14.02;3.35;;;;;;;;;;5029081;28;20365;-67
2023/11/15 10:20:30;;;;;;;16.13;3.10;;;;;;;;;;5028770;28;20028;-67
2023/11/15 10:22:57;;;;;;;20.60;3.40;;;;;;;;;;5029937;28;20030;-69
2023/11/15 10:25:25;;;;;;;25.92;4.07;;;;;;;;;;5030536;28;20101;-68
2023/11/15 10:27:51;;;;;;;15.18;3.80;;;;;;;;;;5026452;28;20026;-68
2023/11/15 10:30:17;;;;;;;11.80;3.13;;;;;;;;;;5024944;28;20079;-68
2023/11/15 10:32:45;;;;;;;12.57;1.92;;;;;;;;;;5028894;28;20440;-67
2023/11/15 10:35:22;;;;;;;16.48;2.45;;;;;;;;;;5028616;28;20107;-68
2023/11/15 10:37:48;;;;;;;24.83;3.45;;;;;;;;;;5026400;28;20385;-67
2023/11/15 10:40:14;;;;;;;15.27;2.33;;;;;;;;;;5023898;28;20022;-68
2023/11/15 10:42:40;;;;;;;14.45;2.67;;;;;;;;;;5024086;28;20101;-68
2023/11/15 10:45:08;;;;;;;16.75;3.30;;;;;;;;;;5032133;28;20743;-70
2023/11/15 10:47:34;;;;;;;26.60;4.93;;;;;;;;;;5024034;28;20672;-69
2023/11/15 10:50:05;;;;;;;23.42;3.28;;;;;;;;;;5024185;28;20030;-68
2023/11/15 10:52:31;;;;;;;17.42;2.47;;;;;;;;;;5028921;28;20064;-67
2023/11/15 10:54:57;;;;;;;13.10;2.30;;;;;;;;;;5028711;28;20095;-69
2023/11/15 10:57:22;;;;;;;14.35;2.78;;;;;;;;;;5029381;28;20462;-68
2023/11/15 10:59:48;;;;;;;23.50;2.90;;;;;;;;;;5027594;28;20026;-67
2023/11/15 11:02:14;;;;;;;12.98;2.20;;;;;;;;;;5029091;28;20433;-67
2023/11/15 11:04:39;;;;;;;23.83;2.75;;;;;;;;;;5029197;28;20076;-67
2023/11/15 11:07:13;;;;;;;8.50;2.47;;;;;;;;;;5028289;28;20060;-67
2023/11/15 11:09:47;;;;;;;15.98;2.50;;;;;;;;;;5027996;28;20064;-67
2023/11/15 11:12:16;;;;;;;19.10;3.35;;;;;;;;;;5020401;28;20553;-67
2023/11/15 11:14:42;;;;;;;14.30;2.42;;;;;;;;;;5026370;28;20405;-67
2023/11/15 11:17:26;;;;;;;19.30;3.10;;;;;;;;;;5028247;28;20025;-67
2023/11/15 11:19:51;;;;;;;14.68;2.20;;;;;;;;;;5030670;28;20088;-68
2023/11/15 11:22:17;;;;;;;21.80;3.53;;;;;;;;;;5031507;28;20109;-68
2023/11/15 11:25:06;;;;;;;13.30;3.60;;;;;;;;;;5032042;28;20079;-68
2023/11/15 11:27:31;;;;;;;9.50;2.70;;;;;;;;;;5028743;28;20044;-67
2023/11/15 11:30:06;;;;;;;12.27;2.85;;;;;;;;;;5028642;28;20030;-68
2023/11/15 11:32:31;;;;;;;14.57;3.25;;;;;;;;;;5027917;28;20025;-68
2023/11/15 11:35:00;;;;;;;22.33;3.00;;;;;;;;;;5026735;28;20115;-68
2023/11/15 11:37:47;;;;;;;19.20;2.92;;;;;;;;;;5033688;28;20490;-68
2023/11/15 11:40:16;;;;;;;11.93;2.88;;;;;;;;;;5025661;28;20040;-67
2023/11/15 11:42:43;;;;;;;16.15;2.88;;;;;;;;;;5027632;28;20030;-68
2023/11/15 11:45:09;;;;;;;17.55;3.72;;;;;;;;;;5029487;28;20029;-68
2023/11/15 11:47:38;;;;;;;17.55;2.90;;;;;;;;;;5030518;28;20036;-68
2023/11/15 11:50:06;;;;;;;15.13;1.98;;;;;;;;;;5032640;28;20132;-67
2023/11/15 11:52:31;;;;;;;17.05;2.22;;;;;;;;;;5030947;28;20473;-67
2023/11/15 11:54:56;;;;;;;18.80;4.30;;;;;;;;;;5031113;28;20021;-68
2023/11/15 11:57:24;;;;;;;13.90;3.05;;;;;;;;;;5019137;28;20379;-67
2023/11/15 12:00:15;;;;;;;17.10;3.03;;;;;;;;;;5028079;28;20021;-68
2023/11/15 12:02:41;;;;;;;16.67;2.53;;;;;;;;;;5027411;28;20083;-68
2023/11/15 12:05:07;;;;;;;15.60;2.92;;;;;;;;;;5031086;28;20044;-68
2023/11/15 12:07:33;;;;;;;13.65;4.25;;;;;;;;;;5028813;28;20028;-68
2023/11/15 12:10:05;;;;;;;13.48;2.70;;;;;;;;;;5024678;28;20017;-68
2023/11/15 12:12:30;;;;;;;11.13;2.20;;;;;;;;;;5031106;28;20029;-67
2023/11/15 12:14:59;;;;;;;15.10;2.55;;;;;;;;;;5027162;28;20388;-67
2023/11/15 12:17:36;;;;;;;15.05;2.95;;;;;;;;;;5028087;28;20041;-68
2023/11/15 12:20:01;;;;;;;15.30;2.92;;;;;;;;;;5030218;28;20021;-67
2023/11/15 12:22:27;;;;;;;8.43;1.63;;;;;;;;;;5030847;28;20028;-67
2023/11/15 12:24:52;;;;;;;13.75;2.70;;;;;;;;;;5030619;28;20779;-67
2023/11/15 12:27:18;;;;;;;9.43;2.90;;;;;;;;;;5030059;28;20095;-68
2023/11/15 12:29:45;;;;;;;12.75;2.90;;;;;;;;;;5026845;28;20029;-68
2023/11/15 12:32:11;;;;;;;7.25;2.25;;;;;;;;;;5028860;28;20022;-67
2023/11/15 12:34:36;;;;;;;11.80;2.78;;;;;;;;;;5027031;28;20476;-68
2023/11/15 12:37:03;;;;;;;12.80;2.10;;;;;;;;;;5030283;28;20076;-68
2023/11/15 12:39:34;;;;;;;14.43;2.70;;;;;;;;;;5030186;28;20020;-68
2023/11/15 12:42:01;;;;;;;16.80;3.10;;;;;;;;;;5029734;28;20429;-67
2023/11/15 12:44:26;;;;;;;28.38;3.92;;;;;;;;;;5024933;28;20477;-68
2023/11/15 12:46:53;;;;;;;19.30;2.97;;;;;;;;;;5028789;28;20104;-67
2023/11/15 12:49:25;;;;;;;20.05;2.15;;;;;;;;;;5030637;28;20277;-67
2023/11/15 12:51:54;;;;;;;13.55;2.70;;;;;;;;;;5031661;28;20081;-67
2023/11/15 12:54:19;;;;;;;12.50;2.60;;;;;;;;;;5022766;28;20048;-68
2023/11/15 12:57:00;;;;;;;14.52;2.40;;;;;;;;;;5024725;28;20529;-68
2023/11/15 12:59:31;;;;;;;18.13;3.25;;;;;;;;;;5029526;28;20013;-68
2023/11/15 13:01:57;;;;;;;18.02;3.10;;;;;;;;;;5029581;28;20049;-67
2023/11/15 13:04:22;;;;;;;11.25;2.65;;;;;;;;;;5029895;28;20021;-67
2023/11/15 13:06:49;;;;;;;7.70;2.33;;;;;;;;;;5030835;28;20025;-68
2023/11/15 13:09:14;;;;;;;11.35;1.80;;;;;;;;;;5019501;28;20264;-68
2023/11/15 13:11:42;;;;;;;9.80;2.50;;;;;;;;;;5030153;28;20419;-68
2023/11/15 13:14:08;;;;;;;18.30;2.30;;;;;;;;;;5030002;28;20045;-68
2023/11/15 13:16:33;;;;;;;13.45;2.38;;;;;;;;;;5029581;28;20088;-67
2023/11/15 13:18:58;;;;;;;10.67;2.63;;;;;;;;;;5029925;28;20644;-68
2023/11/15 13:21:23;;;;;;;14.63;3.23;;;;;;;;;;5030524;28;20284;-66
2023/11/15 13:23:51;;;;;;;13.13;2.92;;;;;;;;;;5026582;28;20268;-68
2023/11/15 13:26:16;;;;;;;18.02;2.60;;;;;;;;;;5029505;28;20036;-67
2023/11/15 13:28:44;;;;;;;9.98;2.42;;;;;;;;;;5029783;28;20021;-66
2023/11/15 13:31:10;;;;;;;13.90;3.33;;;;;;;;;;5028948;28;20381;-67
2023/11/15 13:33:36;;;;;;;17.08;3.47;;;;;;;;;;5029235;28;20025;-68
2023/11/15 13:36:02;;;;;;;18.50;2.83;;;;;;;;;;5029287;28;20029;-68
2023/11/15 13:38:27;;;;;;;10.48;2.67;;;;;;;;;;5034022;28;20519;-67
2023/11/15 13:40:52;;;;;;;13.83;2.20;;;;;;;;;;5022761;28;20045;-67
2023/11/15 13:43:19;;;;;;;15.48;2.30;;;;;;;;;;5027346;28;20272;-67
2023/11/15 13:45:45;;;;;;;7.32;1.92;;;;;;;;;;5030808;28;20035;-67
2023/11/15 13:48:11;;;;;;;24.60;3.80;;;;;;;;;;5029230;28;20024;-67
2023/11/15 13:50:36;;;;;;;12.30;2.47;;;;;;;;;;5027172;28;20022;-68
2023/11/15 13:53:01;;;;;;;9.33;2.37;;;;;;;;;;5027236;28;20120;-67
2023/11/15 13:55:27;;;;;;;11.97;2.73;;;;;;;;;;5032419;28;20275;-68
2023/11/15 13:57:53;;;;;;;10.07;2.05;;;;;;;;;;5011541;28;20263;-67
2023/11/15 14:00:23;;;;;;;9.80;2.40;;;;;;;;;;5028710;28;20393;-67
2023/11/15 14:02:49;;;;;;;8.98;1.83;;;;;;;;;;5029344;28;20260;-67
2023/11/15 14:05:17;;;;;;;15.55;3.58;;;;;;;;;;5028552;28;20148;-67
2023/11/15 14:07:43;;;;;;;14.50;2.20;;;;;;;;;;5032199;28;20065;-68
2023/11/15 14:10:08;;;;;;;14.55;2.30;;;;;;;;;;5021528;28;20080;-68
2023/11/15 14:12:33;;;;;;;14.43;2.63;;;;;;;;;;5029304;28;20032;-68
2023/11/15 14:14:59;;;;;;;8.07;2.10;;;;;;;;;;5028862;28;20104;-67
2023/11/15 14:17:26;;;;;;;11.63;2.47;;;;;;;;;;5028778;28;20055;-67
2023/11/15 14:19:51;;;;;;;17.20;2.33;;;;;;;;;;5029623;28;20020;-68
2023/11/15 14:22:16;;;;;;;8.82;2.05;;;;;;;;;;5024580;28;20506;-68
2023/11/15 14:24:41;;;;;;;7.95;1.98;;;;;;;;;;5028339;28;20032;-68
2023/11/15 14:27:07;;;;;;;15.07;1.70;;;;;;;;;;5028201;28;20124;-67